Time;durP1;ratioP1;P1;durP2;ratioP2;P2;SDS_P1;SDS_P2;PMS_P1;PMS_P2;Temp;Humidity;BMP_temperature;BMP_pressure;BME280_temperature;BME280_humidity;BME280_pressure;Samples;Min_cycle;Max_cycle;Signal;HPM_P1;HPM_P2
2020/12/26 00:00:11;;;;;;;2.97;2.73;;;20.40;47.70;;;;;;5048845;28;20486;-67
2020/12/26 00:02:37;;;;;;;1.70;1.60;;;20.30;47.70;;;;;;5052607;28;21004;-67
2020/12/26 00:05:04;;;;;;;2.17;1.87;;;20.40;47.80;;;;;;5040659;28;21056;-67
2020/12/26 00:07:30;;;;;;;2.57;2.47;;;20.30;47.70;;;;;;5053227;28;20482;-67
2020/12/26 00:09:56;;;;;;;2.00;1.90;;;20.40;48.00;;;;;;5050412;28;20474;-67
2020/12/26 00:12:22;;;;;;;2.10;2.00;;;20.40;48.10;;;;;;5026052;28;20489;-67
2020/12/26 00:14:48;;;;;;;2.27;2.17;;;20.40;48.10;;;;;;5044740;28;20473;-67
2020/12/26 00:17:15;;;;;;;2.00;1.90;;;20.40;47.90;;;;;;5028888;28;21001;-67
2020/12/26 00:19:41;;;;;;;2.03;1.93;;;20.40;47.90;;;;;;5059844;28;20543;-67
2020/12/26 00:22:07;;;;;;;1.83;1.73;;;20.40;48.00;;;;;;5047981;28;20521;-68
2020/12/26 00:24:34;;;;;;;2.10;1.90;;;20.40;48.00;;;;;;5048313;28;20567;-67
2020/12/26 00:27:00;;;;;;;1.83;1.73;;;20.40;48.00;;;;;;5048421;28;20497;-67
2020/12/26 00:29:26;;;;;;;1.97;1.87;;;20.40;48.10;;;;;;5048229;28;20498;-67
2020/12/26 00:31:52;;;;;;;1.67;1.67;;;20.30;48.00;;;;;;5046265;28;20539;-68
2020/12/26 00:34:19;;;;;;;1.60;1.60;;;20.40;48.20;;;;;;5042465;28;20887;-67
2020/12/26 00:36:45;;;;;;;2.00;1.90;;;20.30;48.10;;;;;;5050020;28;20486;-67
2020/12/26 00:39:11;;;;;;;1.90;1.80;;;20.30;47.80;;;;;;5035489;28;20510;-67
2020/12/26 00:41:38;;;;;;;1.63;1.53;;;20.30;47.90;;;;;;5034148;28;20474;-68
2020/12/26 00:44:04;;;;;;;1.77;1.67;;;20.30;48.00;;;;;;5027022;28;20521;-68
2020/12/26 00:46:30;;;;;;;2.00;1.90;;;20.30;47.90;;;;;;5028011;28;20502;-68
2020/12/26 00:48:56;;;;;;;1.70;1.60;;;20.30;47.90;;;;;;5042923;28;20485;-68
2020/12/26 00:51:23;;;;;;;2.70;2.40;;;20.30;48.00;;;;;;5041291;28;20505;-67
2020/12/26 00:53:49;;;;;;;2.10;1.90;;;20.30;47.90;;;;;;5028279;28;20520;-67
2020/12/26 00:56:15;;;;;;;2.90;2.70;;;20.30;48.10;;;;;;5039431;28;20470;-68
2020/12/26 00:58:41;;;;;;;2.03;1.93;;;20.30;48.20;;;;;;5053032;28;20989;-67
2020/12/26 01:01:07;;;;;;;1.67;1.67;;;20.30;48.20;;;;;;5045713;28;21354;-67
2020/12/26 01:03:34;;;;;;;3.20;1.90;;;20.30;48.10;;;;;;5067857;28;20477;-68
2020/12/26 01:06:00;;;;;;;1.97;1.87;;;20.30;48.10;;;;;;5053975;28;20544;-67
2020/12/26 01:08:27;;;;;;;2.20;2.10;;;20.30;48.30;;;;;;5069814;28;20481;-67
2020/12/26 01:10:53;;;;;;;1.87;1.87;;;20.30;48.30;;;;;;5068552;28;20517;-68
2020/12/26 01:13:19;;;;;;;2.07;1.97;;;20.30;48.50;;;;;;5047102;28;20492;-68
2020/12/26 01:15:45;;;;;;;1.97;1.87;;;20.30;48.40;;;;;;5078344;28;20471;-68
2020/12/26 01:18:12;;;;;;;6.07;2.17;;;20.30;48.50;;;;;;5075730;28;20474;-67
2020/12/26 01:20:38;;;;;;;3.13;2.20;;;20.30;48.40;;;;;;5070022;28;20487;-67
2020/12/26 01:23:04;;;;;;;1.83;1.83;;;20.30;48.40;;;;;;5072550;28;20489;-68
2020/12/26 01:25:31;;;;;;;2.50;2.33;;;20.30;48.30;;;;;;5072973;28;20477;-68
2020/12/26 01:27:57;;;;;;;2.23;2.13;;;20.30;48.40;;;;;;5073395;28;20976;-67
2020/12/26 01:30:23;;;;;;;2.77;2.60;;;20.30;48.30;;;;;;5073652;28;20998;-67
2020/12/26 01:32:49;;;;;;;2.30;2.20;;;20.30;48.20;;;;;;5075082;28;20472;-67
2020/12/26 01:35:16;;;;;;;2.93;2.80;;;20.30;48.20;;;;;;5071614;28;20484;-68
2020/12/26 01:37:42;;;;;;;1.90;1.80;;;20.30;48.30;;;;;;5078487;28;20532;-66
2020/12/26 01:40:10;;;;;;;2.60;2.40;;;20.30;48.40;;;;;;5073900;28;20485;-67
2020/12/26 01:42:38;;;;;;;2.60;2.37;;;20.20;48.30;;;;;;5067752;28;20495;-68
2020/12/26 01:45:04;;;;;;;1.93;1.83;;;20.30;48.30;;;;;;5049824;28;20475;-68
2020/12/26 01:47:30;;;;;;;2.27;2.07;;;20.20;48.40;;;;;;5052578;28;20481;-68
2020/12/26 01:49:57;;;;;;;1.80;1.70;;;20.30;48.60;;;;;;5050615;28;20489;-66
2020/12/26 01:52:23;;;;;;;2.83;2.33;;;20.20;48.30;;;;;;5049068;28;20501;-68
2020/12/26 01:54:49;;;;;;;2.00;1.90;;;20.30;48.40;;;;;;5052702;28;20982;-67
2020/12/26 01:57:15;;;;;;;2.43;2.23;;;20.20;48.30;;;;;;5052931;28;20489;-67
2020/12/26 01:59:42;;;;;;;2.30;2.20;;;20.20;48.30;;;;;;5051467;28;20478;-68
2020/12/26 02:02:09;;;;;;;2.00;1.90;;;20.30;48.30;;;;;;5056527;28;20509;-67
2020/12/26 02:04:35;;;;;;;2.27;2.17;;;20.30;48.40;;;;;;5055716;28;20513;-67
2020/12/26 02:07:02;;;;;;;2.17;2.07;;;20.20;49.10;;;;;;5052923;28;20994;-67
2020/12/26 02:09:28;;;;;;;1.60;1.50;;;20.30;48.40;;;;;;5024879;28;21450;-68
2020/12/26 02:11:54;;;;;;;2.07;1.97;;;20.30;48.70;;;;;;5000129;28;20862;-68
2020/12/26 02:14:21;;;;;;;3.20;2.03;;;20.20;48.40;;;;;;5048721;28;20481;-66
2020/12/26 02:16:49;;;;;;;2.23;2.03;;;20.20;48.60;;;;;;5042043;28;20490;-67
2020/12/26 02:19:16;;;;;;;2.67;2.10;;;20.20;48.80;;;;;;5039955;28;20544;-67
2020/12/26 02:21:42;;;;;;;2.03;1.93;;;20.20;48.80;;;;;;5051856;28;20536;-67
2020/12/26 02:24:09;;;;;;;1.80;1.70;;;20.20;48.70;;;;;;5031986;28;20479;-67
2020/12/26 02:26:35;;;;;;;2.53;2.43;;;20.20;48.40;;;;;;5040759;28;20489;-67
2020/12/26 02:29:01;;;;;;;2.67;2.57;;;20.20;48.20;;;;;;5039192;28;20522;-67
2020/12/26 02:31:27;;;;;;;2.10;1.90;;;20.20;48.20;;;;;;5027263;28;20488;-67
2020/12/26 02:33:54;;;;;;;2.20;2.00;;;20.20;48.10;;;;;;5034291;28;21029;-67
2020/12/26 02:36:20;;;;;;;1.90;1.80;;;20.20;48.40;;;;;;5051539;28;21360;-67
2020/12/26 02:38:46;;;;;;;2.07;1.97;;;20.10;48.40;;;;;;5034708;28;20496;-67
2020/12/26 02:41:13;;;;;;;2.40;2.27;;;20.10;48.50;;;;;;5024019;28;20566;-68
2020/12/26 02:43:39;;;;;;;3.07;2.20;;;20.10;48.50;;;;;;5044795;28;20482;-67
2020/12/26 02:46:05;;;;;;;1.73;1.63;;;20.20;48.70;;;;;;5031948;28;20496;-67
2020/12/26 02:48:31;;;;;;;2.30;2.20;;;20.10;48.50;;;;;;5053215;28;20482;-67
2020/12/26 02:50:58;;;;;;;2.30;2.20;;;20.10;48.70;;;;;;5042931;28;20478;-67
2020/12/26 02:53:24;;;;;;;1.70;1.60;;;20.10;48.50;;;;;;5029687;28;21418;-67
2020/12/26 02:55:50;;;;;;;2.07;2.07;;;20.10;48.60;;;;;;5050182;28;20470;-66
2020/12/26 02:58:17;;;;;;;2.33;2.23;;;20.10;48.60;;;;;;5037911;28;20887;-67
2020/12/26 03:00:43;;;;;;;2.90;2.40;;;20.10;48.40;;;;;;5047994;28;20501;-67
2020/12/26 03:03:09;;;;;;;2.83;2.67;;;20.10;48.30;;;;;;5051532;28;20498;-67
2020/12/26 03:05:35;;;;;;;2.03;1.93;;;20.10;48.30;;;;;;5030519;28;20474;-68
2020/12/26 03:08:02;;;;;;;2.63;2.43;;;20.10;48.40;;;;;;5027723;28;20556;-68
2020/12/26 03:10:28;;;;;;;2.73;2.53;;;20.10;48.60;;;;;;5041910;28;20479;-68
2020/12/26 03:12:54;;;;;;;2.90;2.80;;;20.10;48.40;;;;;;5050848;28;20843;-67
2020/12/26 03:15:22;;;;;;;2.23;2.13;;;20.10;48.70;;;;;;5043549;28;21575;-67
2020/12/26 03:17:48;;;;;;;1.77;1.70;;;20.10;48.70;;;;;;5036268;28;21060;-67
2020/12/26 03:20:14;;;;;;;2.40;2.30;;;20.10;48.80;;;;;;5066742;28;20490;-67
2020/12/26 03:22:40;;;;;;;2.40;2.20;;;20.20;48.70;;;;;;5047619;28;20482;-68
2020/12/26 03:25:06;;;;;;;4.00;2.20;;;20.10;48.50;;;;;;5030025;28;20483;-67
2020/12/26 03:27:32;;;;;;;2.27;2.17;;;20.10;48.40;;;;;;5049484;28;20485;-67
2020/12/26 03:29:58;;;;;;;2.50;2.37;;;20.10;48.40;;;;;;5035949;28;20474;-68
2020/12/26 03:32:25;;;;;;;2.83;2.50;;;20.10;48.30;;;;;;5052099;28;20485;-68
2020/12/26 03:34:51;;;;;;;2.57;2.47;;;20.10;48.40;;;;;;5041825;28;20550;-67
2020/12/26 03:37:18;;;;;;;2.17;2.07;;;20.10;48.40;;;;;;5021479;28;20497;-67
2020/12/26 03:39:44;;;;;;;1.90;1.90;;;20.10;48.50;;;;;;5058306;28;20481;-67
2020/12/26 03:42:11;;;;;;;2.33;2.23;;;20.10;48.70;;;;;;5047741;28;20498;-67
2020/12/26 03:44:37;;;;;;;2.40;2.30;;;20.10;48.80;;;;;;5054093;28;20469;-67
2020/12/26 03:47:04;;;;;;;2.23;2.13;;;20.10;48.70;;;;;;5053938;28;20475;-67
2020/12/26 03:49:31;;;;;;;2.30;2.20;;;20.10;48.80;;;;;;5052179;28;20486;-67
2020/12/26 03:51:57;;;;;;;2.40;2.30;;;20.10;48.70;;;;;;5013543;28;20978;-67
2020/12/26 03:54:24;;;;;;;2.07;1.97;;;20.10;48.30;;;;;;5032322;28;21047;-68
2020/12/26 03:56:50;;;;;;;2.70;2.50;;;20.10;48.40;;;;;;5026256;28;20478;-68
2020/12/26 03:59:16;;;;;;;2.03;1.93;;;20.10;48.30;;;;;;5033011;28;20563;-68
2020/12/26 04:01:43;;;;;;;2.30;2.20;;;20.10;48.30;;;;;;5049863;28;20482;-67
2020/12/26 04:04:09;;;;;;;2.03;1.93;;;20.10;48.40;;;;;;5051296;28;20562;-67
2020/12/26 04:06:36;;;;;;;1.97;1.87;;;20.10;48.50;;;;;;5051419;28;20470;-68
2020/12/26 04:09:03;;;;;;;2.47;2.37;;;20.10;48.40;;;;;;5035515;28;20475;-68
2020/12/26 04:11:29;;;;;;;1.77;1.67;;;20.10;48.50;;;;;;5039420;28;20497;-68
2020/12/26 04:13:55;;;;;;;2.70;2.60;;;20.10;48.30;;;;;;5029319;28;20473;-68
2020/12/26 04:16:21;;;;;;;2.47;2.27;;;20.10;48.20;;;;;;5038894;28;21488;-68
2020/12/26 04:18:47;;;;;;;2.20;2.10;;;20.00;48.20;;;;;;5050872;28;20473;-68
2020/12/26 04:21:13;;;;;;;2.07;1.97;;;20.10;48.60;;;;;;5039744;28;20505;-68
2020/12/26 04:23:40;;;;;;;1.70;1.53;;;20.10;48.70;;;;;;5048430;28;20478;-68
2020/12/26 04:26:08;;;;;;;2.80;2.40;;;20.00;48.60;;;;;;5050203;28;20529;-68
2020/12/26 04:28:35;;;;;;;2.57;2.47;;;20.00;48.60;;;;;;5018907;28;20471;-69
2020/12/26 04:31:01;;;;;;;3.03;2.50;;;20.00;48.80;;;;;;5026427;28;20526;-68
2020/12/26 04:33:27;;;;;;;2.30;2.20;;;20.00;48.90;;;;;;5058510;28;20527;-68
2020/12/26 04:35:53;;;;;;;2.67;2.47;;;20.00;48.80;;;;;;5041807;28;20482;-69
2020/12/26 04:38:19;;;;;;;2.53;2.43;;;20.00;48.90;;;;;;5019369;28;20486;-69
2020/12/26 04:40:47;;;;;;;2.40;2.07;;;20.00;48.60;;;;;;5040307;28;20500;-68
2020/12/26 04:43:14;;;;;;;2.13;2.03;;;20.00;48.50;;;;;;5032901;28;20505;-68
2020/12/26 04:45:40;;;;;;;2.47;2.37;;;20.00;49.70;;;;;;5017961;28;20476;-68
2020/12/26 04:48:07;;;;;;;1.83;1.83;;;20.00;48.80;;;;;;5043743;28;21010;-68
2020/12/26 04:50:34;;;;;;;2.30;2.20;;;20.00;48.70;;;;;;5038999;28;20469;-69
2020/12/26 04:53:01;;;;;;;1.97;1.87;;;20.00;48.70;;;;;;5037473;28;20493;-68
2020/12/26 04:55:28;;;;;;;2.50;2.40;;;20.00;48.80;;;;;;5049873;28;20486;-68
2020/12/26 04:58:03;;;;;;;2.30;2.20;;;20.00;48.90;;;;;;5039370;28;21140;-69
2020/12/26 05:00:30;;;;;;;2.40;2.20;;;20.00;49.00;;;;;;5041050;28;20493;-68
2020/12/26 05:02:56;;;;;;;2.07;1.97;;;20.00;49.10;;;;;;5068457;28;20480;-68
2020/12/26 05:05:22;;;;;;;2.20;2.10;;;20.00;49.20;;;;;;5061647;28;20489;-69
2020/12/26 05:07:49;;;;;;;1.80;1.70;;;20.00;49.00;;;;;;5066409;28;20495;-68
2020/12/26 05:10:15;;;;;;;1.77;1.67;;;20.00;48.80;;;;;;5046442;28;20503;-68
2020/12/26 05:12:41;;;;;;;2.40;2.30;;;20.00;48.50;;;;;;5052525;28;20476;-69
2020/12/26 05:15:08;;;;;;;2.43;2.23;;;20.00;48.40;;;;;;5070358;28;20986;-68
2020/12/26 05:17:34;;;;;;;2.27;2.17;;;20.00;48.50;;;;;;5074548;28;20477;-68
2020/12/26 05:20:00;;;;;;;2.20;2.00;;;20.00;48.50;;;;;;5071440;28;20539;-68
2020/12/26 05:22:26;;;;;;;2.53;2.40;;;20.00;48.40;;;;;;5062243;28;20473;-68
2020/12/26 05:24:53;;;;;;;1.80;1.70;;;20.00;48.70;;;;;;5051254;28;20492;-68
2020/12/26 05:27:21;;;;;;;2.30;2.20;;;20.00;48.90;;;;;;5057916;28;20492;-67
2020/12/26 05:29:47;;;;;;;2.33;2.20;;;20.10;49.00;;;;;;5071182;28;20485;-67
2020/12/26 05:32:14;;;;;;;2.00;1.90;;;20.00;48.90;;;;;;5053542;28;20508;-68
2020/12/26 05:34:41;;;;;;;2.73;2.47;;;20.00;48.80;;;;;;5039991;28;20483;-67
2020/12/26 05:37:07;;;;;;;2.87;2.67;;;20.00;48.60;;;;;;5050399;28;20498;-67
2020/12/26 05:39:34;;;;;;;2.63;2.50;;;20.00;48.60;;;;;;5064422;28;20494;-67
2020/12/26 05:42:00;;;;;;;1.60;1.60;;;20.00;48.40;;;;;;5052110;28;20493;-67
2020/12/26 05:44:28;;;;;;;1.90;1.80;;;20.00;48.40;;;;;;5064448;28;20494;-67
2020/12/26 05:46:55;;;;;;;2.53;2.10;;;20.00;48.30;;;;;;5046454;28;20485;-67
2020/12/26 05:49:23;;;;;;;2.03;1.90;;;20.00;48.40;;;;;;5062447;28;20474;-68
2020/12/26 05:51:51;;;;;;;2.30;1.83;;;20.00;48.70;;;;;;5026355;28;20478;-68
2020/12/26 05:54:17;;;;;;;8.03;1.97;;;20.00;48.40;;;;;;5049653;28;20540;-67
2020/12/26 05:56:43;;;;;;;2.03;1.93;;;20.00;48.50;;;;;;5043650;28;20499;-68
2020/12/26 05:59:24;;;;;;;2.20;2.10;;;20.00;49.40;;;;;;5049658;28;20487;-68
2020/12/26 06:01:50;;;;;;;2.00;1.90;;;20.00;48.60;;;;;;5035141;28;20470;-67
2020/12/26 06:04:19;;;;;;;2.13;2.03;;;20.00;48.40;;;;;;5041401;28;20483;-67
2020/12/26 06:06:47;;;;;;;2.20;2.10;;;20.00;48.50;;;;;;5053929;28;20478;-67
2020/12/26 06:09:13;;;;;;;2.43;2.20;;;20.00;48.40;;;;;;5032952;28;20929;-66
2020/12/26 06:11:39;;;;;;;1.70;1.60;;;20.10;48.40;;;;;;5052019;28;20866;-68
2020/12/26 06:14:06;;;;;;;2.03;1.93;;;20.10;48.30;;;;;;5035793;28;20535;-68
2020/12/26 06:16:32;;;;;;;1.43;1.43;;;20.10;48.10;;;;;;5055334;28;20478;-68
2020/12/26 06:18:59;;;;;;;1.73;1.73;;;20.10;47.90;;;;;;5051214;28;20501;-67
2020/12/26 06:21:25;;;;;;;1.93;1.90;;;20.20;47.90;;;;;;5042112;28;20482;-67
2020/12/26 06:23:53;;;;;;;1.60;1.50;;;20.20;47.90;;;;;;5036806;28;20478;-67
2020/12/26 06:26:19;;;;;;;2.00;1.90;;;20.20;47.70;;;;;;5045194;28;20477;-67
2020/12/26 06:28:46;;;;;;;2.13;1.70;;;20.20;47.60;;;;;;5047576;28;20481;-68
2020/12/26 06:31:12;;;;;;;2.10;2.00;;;20.20;47.60;;;;;;5050218;28;20490;-67
2020/12/26 06:33:39;;;;;;;1.83;1.73;;;20.30;47.70;;;;;;5041509;28;20477;-67
2020/12/26 06:36:05;;;;;;;1.93;1.70;;;20.30;47.70;;;;;;5041036;28;20496;-67
2020/12/26 06:38:32;;;;;;;1.67;1.57;;;20.20;47.60;;;;;;5054520;28;20479;-68
2020/12/26 06:41:00;;;;;;;2.30;1.97;;;20.30;47.70;;;;;;5049547;28;20497;-67
2020/12/26 06:43:49;;;;;;;1.80;1.70;;;20.30;47.70;;;;;;5014364;28;21104;-67
2020/12/26 06:46:39;;;;;;;2.73;1.47;;;20.20;47.60;;;;;;5031057;28;20494;-67
2020/12/26 06:49:05;;;;;;;1.40;1.30;;;20.20;47.70;;;;;;5046201;28;20487;-68
2020/12/26 06:51:32;;;;;;;1.67;1.63;;;20.20;47.60;;;;;;5012009;28;20551;-68
2020/12/26 06:53:58;;;;;;;1.77;1.70;;;20.20;47.80;;;;;;5032834;28;20489;-67
2020/12/26 06:56:47;;;;;;;2.13;1.60;;;20.20;47.60;;;;;;5022520;28;20472;-68
2020/12/26 06:59:13;;;;;;;1.47;1.23;;;20.20;47.70;;;;;;5046673;28;20902;-67
2020/12/26 07:01:40;;;;;;;2.00;1.90;;;20.20;47.70;;;;;;5042577;28;20496;-67
2020/12/26 07:04:16;;;;;;;1.70;1.60;;;20.20;47.90;;;;;;5051225;28;20511;-68
2020/12/26 07:06:43;;;;;;;1.53;1.43;;;20.20;48.10;;;;;;5049178;28;21023;-69
2020/12/26 07:09:09;;;;;;;1.63;1.60;;;20.20;47.90;;;;;;5052258;28;21016;-68
2020/12/26 07:11:46;;;;;;;1.53;1.43;;;20.30;48.10;;;;;;5049489;28;20475;-67
2020/12/26 07:14:31;;;;;;;1.90;1.67;;;20.20;47.90;;;;;;5049204;28;20895;-67
2020/12/26 07:16:58;;;;;;;3.70;1.23;;;20.30;47.80;;;;;;5050132;28;20490;-67
2020/12/26 07:19:33;;;;;;;3.43;1.83;;;20.30;47.70;;;;;;5043497;28;20520;-67
2020/12/26 07:22:01;;;;;;;1.80;1.70;;;20.30;47.70;;;;;;5038766;28;20527;-68
2020/12/26 07:24:34;;;;;;;1.10;1.10;;;20.30;47.60;;;;;;5049897;28;20573;-68
2020/12/26 07:27:18;;;;;;;1.30;1.30;;;20.30;47.60;;;;;;5050228;28;20494;-68
2020/12/26 07:29:58;;;;;;;1.33;1.33;;;20.30;47.50;;;;;;5048716;28;20483;-67
2020/12/26 07:32:50;;;;;;;1.20;1.20;;;20.30;47.50;;;;;;5049785;28;20489;-68
2020/12/26 07:35:32;;;;;;;5.50;1.50;;;20.40;47.70;;;;;;5074304;28;21126;-68
2020/12/26 07:38:00;;;;;;;1.13;1.00;;;20.40;47.60;;;;;;5066220;28;20481;-67
2020/12/26 07:40:26;;;;;;;1.70;1.60;;;20.40;47.50;;;;;;5072661;28;20991;-66
2020/12/26 07:42:53;;;;;;;1.90;1.13;;;20.50;47.50;;;;;;5052114;28;20978;-68
2020/12/26 07:45:21;;;;;;;2.90;1.43;;;20.50;47.60;;;;;;5069694;28;20510;-68
2020/12/26 07:47:49;;;;;;;1.20;1.20;;;20.50;47.40;;;;;;5074964;28;20511;-66
2020/12/26 07:50:15;;;;;;;1.53;1.40;;;20.50;47.60;;;;;;5078748;28;20477;-67
2020/12/26 07:52:45;;;;;;;1.23;1.23;;;20.50;47.50;;;;;;5070365;28;21019;-67
2020/12/26 07:55:11;;;;;;;2.47;1.20;;;20.60;47.40;;;;;;5013528;28;21536;-67
2020/12/26 07:57:37;;;;;;;1.70;1.40;;;20.60;48.20;;;;;;5067221;28;20478;-67
2020/12/26 08:00:04;;;;;;;1.70;1.10;;;20.50;47.40;;;;;;5056193;28;20477;-67
2020/12/26 08:02:31;;;;;;;1.13;1.03;;;20.50;47.50;;;;;;5071126;28;21622;-68
2020/12/26 08:04:57;;;;;;;1.53;1.40;;;20.50;47.60;;;;;;5049471;28;20491;-68
2020/12/26 08:07:24;;;;;;;1.73;1.27;;;20.40;47.60;;;;;;5069778;28;21010;-68
2020/12/26 08:09:50;;;;;;;1.20;1.13;;;20.40;47.50;;;;;;5062094;28;20563;-68
2020/12/26 08:12:16;;;;;;;1.00;1.00;;;20.50;47.50;;;;;;5039833;28;21148;-68
2020/12/26 08:14:43;;;;;;;1.37;1.37;;;20.40;47.40;;;;;;5047593;28;20496;-68
2020/12/26 08:17:10;;;;;;;1.20;1.07;;;20.40;47.50;;;;;;5029331;28;20494;-68
2020/12/26 08:19:37;;;;;;;1.17;1.17;;;20.40;47.50;;;;;;5019923;28;20533;-68
2020/12/26 08:22:03;;;;;;;0.93;0.93;;;20.40;47.40;;;;;;5011557;28;20488;-67
2020/12/26 08:24:29;;;;;;;1.57;1.47;;;20.40;47.50;;;;;;5031398;28;20485;-69
2020/12/26 08:26:55;;;;;;;1.20;1.10;;;20.40;47.60;;;;;;5018825;28;20473;-68
2020/12/26 08:29:23;;;;;;;0.77;0.77;;;20.40;47.70;;;;;;5021899;28;20488;-67
2020/12/26 08:31:50;;;;;;;1.10;1.10;;;20.40;47.50;;;;;;5018785;28;20577;-67
2020/12/26 08:34:18;;;;;;;1.20;1.10;;;20.40;47.50;;;;;;5047580;28;20982;-67
2020/12/26 08:36:45;;;;;;;1.10;1.10;;;20.40;47.60;;;;;;5049859;28;20496;-67
2020/12/26 08:39:11;;;;;;;1.00;1.00;;;20.50;47.80;;;;;;5012490;28;20483;-68
2020/12/26 08:41:39;;;;;;;1.20;1.10;;;20.50;47.60;;;;;;5040283;28;20986;-68
2020/12/26 08:44:09;;;;;;;1.50;1.40;;;20.50;47.60;;;;;;5022172;28;21010;-67
2020/12/26 08:46:41;;;;;;;0.90;0.90;;;20.40;47.70;;;;;;5043165;28;20968;-68
2020/12/26 08:49:07;;;;;;;1.03;1.03;;;20.40;47.60;;;;;;5048321;28;20479;-68
2020/12/26 08:51:38;;;;;;;1.10;0.93;;;20.40;47.60;;;;;;5042586;28;20481;-66
2020/12/26 08:54:04;;;;;;;0.97;0.90;;;20.40;47.70;;;;;;5052386;28;20486;-68
2020/12/26 08:56:31;;;;;;;1.13;1.03;;;20.40;47.60;;;;;;5056730;28;21052;-67
2020/12/26 08:58:57;;;;;;;1.03;0.90;;;20.40;47.70;;;;;;5022275;28;20473;-68
2020/12/26 09:01:23;;;;;;;1.47;0.77;;;20.40;47.70;;;;;;5060085;28;20517;-67
2020/12/26 09:03:50;;;;;;;0.83;0.80;;;20.30;47.70;;;;;;5045440;28;20494;-67
2020/12/26 09:06:16;;;;;;;2.00;0.93;;;20.30;47.70;;;;;;5034394;28;20485;-67
2020/12/26 09:08:43;;;;;;;0.90;0.90;;;20.30;47.70;;;;;;5023739;28;20489;-67
2020/12/26 09:11:10;;;;;;;0.83;0.83;;;20.30;47.80;;;;;;5034192;28;20483;-68
2020/12/26 09:13:37;;;;;;;1.27;1.07;;;20.30;47.80;;;;;;5039639;28;20477;-67
2020/12/26 09:16:13;;;;;;;2.87;0.87;;;20.30;47.80;;;;;;5052882;28;20475;-67
2020/12/26 09:18:41;;;;;;;0.73;0.73;;;20.30;47.80;;;;;;5044645;28;20481;-68
2020/12/26 09:21:08;;;;;;;1.40;1.30;;;20.30;47.70;;;;;;5037993;28;20490;-68
2020/12/26 09:23:36;;;;;;;3.03;1.13;;;20.30;47.80;;;;;;5033294;28;20473;-67
2020/12/26 09:26:12;;;;;;;1.10;1.10;;;20.40;47.80;;;;;;5007114;28;21034;-68
2020/12/26 09:28:52;;;;;;;0.93;0.93;;;20.40;47.90;;;;;;5073404;28;20472;-67
2020/12/26 09:31:20;;;;;;;0.97;0.93;;;20.40;47.80;;;;;;5035112;28;20492;-67
2020/12/26 09:33:46;;;;;;;0.87;0.70;;;20.40;47.80;;;;;;5045346;28;21120;-67
2020/12/26 09:36:15;;;;;;;1.20;0.90;;;20.40;47.80;;;;;;5042507;28;20874;-69
2020/12/26 09:38:41;;;;;;;1.00;0.90;;;20.50;47.80;;;;;;5051078;28;21093;-68
2020/12/26 09:41:16;;;;;;;1.37;0.70;;;20.50;47.90;;;;;;5053954;28;20491;-68
2020/12/26 09:43:43;;;;;;;0.90;0.90;;;20.40;47.70;;;;;;5049481;28;20484;-67
2020/12/26 09:46:09;;;;;;;1.17;1.10;;;20.40;47.70;;;;;;5040259;28;20474;-67
2020/12/26 09:48:35;;;;;;;1.10;1.00;;;20.40;47.70;;;;;;5052715;28;20579;-68
2020/12/26 09:51:01;;;;;;;1.00;1.00;;;20.40;47.70;;;;;;5049617;28;20492;-67
2020/12/26 09:53:27;;;;;;;0.90;0.90;;;20.40;47.70;;;;;;5030461;28;21150;-69
2020/12/26 09:55:54;;;;;;;0.83;0.83;;;20.40;47.80;;;;;;5040780;28;20478;-67
2020/12/26 09:58:21;;;;;;;0.90;0.90;;;20.40;47.80;;;;;;5031861;28;20477;-69
2020/12/26 10:00:47;;;;;;;0.73;0.73;;;20.40;47.80;;;;;;5041037;28;20474;-68
2020/12/26 10:03:13;;;;;;;0.80;0.80;;;20.40;47.80;;;;;;5031427;28;20553;-67
2020/12/26 10:05:40;;;;;;;0.60;0.60;;;20.40;47.80;;;;;;5031258;28;20488;-68
2020/12/26 10:08:06;;;;;;;0.80;0.80;;;20.40;47.90;;;;;;5052479;28;20487;-68
2020/12/26 10:10:33;;;;;;;3.00;1.50;;;20.40;47.80;;;;;;5043986;28;20546;-68
2020/12/26 10:12:59;;;;;;;0.90;0.90;;;20.40;47.80;;;;;;5026541;28;20470;-68
2020/12/26 10:15:26;;;;;;;0.80;0.80;;;20.40;47.80;;;;;;5028907;28;20486;-68
2020/12/26 10:17:52;;;;;;;0.93;0.93;;;20.40;47.80;;;;;;5048468;28;21045;-68
2020/12/26 10:20:18;;;;;;;0.80;0.80;;;20.50;47.80;;;;;;5052480;28;20479;-67
2020/12/26 10:22:44;;;;;;;0.70;0.70;;;20.40;47.70;;;;;;5044001;28;20508;-68
2020/12/26 10:25:10;;;;;;;2.20;1.10;;;20.50;47.70;;;;;;5050014;28;20490;-68
2020/12/26 10:27:36;;;;;;;1.70;1.00;;;20.50;47.70;;;;;;5043146;28;20482;-68
2020/12/26 10:30:03;;;;;;;1.03;1.03;;;20.50;47.80;;;;;;5041296;28;20491;-68
2020/12/26 10:32:30;;;;;;;1.27;1.07;;;20.50;47.70;;;;;;5053877;28;21290;-68
2020/12/26 10:34:56;;;;;;;0.80;0.80;;;20.50;47.70;;;;;;4998734;28;20475;-68
2020/12/26 10:37:22;;;;;;;1.00;1.00;;;20.50;47.70;;;;;;5051999;28;20478;-69
2020/12/26 10:39:48;;;;;;;2.10;0.83;;;20.50;47.80;;;;;;5040921;28;20538;-68
2020/12/26 10:42:14;;;;;;;0.83;0.83;;;20.40;47.80;;;;;;5051846;28;20485;-67
2020/12/26 10:44:40;;;;;;;0.70;0.70;;;20.40;47.80;;;;;;5031985;28;20489;-67
2020/12/26 10:47:07;;;;;;;1.27;0.67;;;20.40;47.90;;;;;;5013359;28;21050;-67
2020/12/26 10:49:34;;;;;;;1.10;0.77;;;20.30;48.00;;;;;;5036711;28;20485;-68
2020/12/26 10:52:00;;;;;;;0.90;0.90;;;20.30;47.90;;;;;;5031701;28;20482;-67
2020/12/26 10:54:26;;;;;;;0.90;0.90;;;20.30;47.90;;;;;;5053845;28;20496;-67
2020/12/26 10:56:52;;;;;;;1.17;1.07;;;20.40;47.90;;;;;;5062306;28;20488;-68
2020/12/26 10:59:18;;;;;;;3.17;1.10;;;20.40;47.90;;;;;;5069142;28;20992;-67
2020/12/26 11:01:44;;;;;;;1.37;1.27;;;20.40;47.80;;;;;;5060871;28;20468;-68
2020/12/26 11:04:10;;;;;;;1.00;0.80;;;20.40;47.90;;;;;;5061148;28;20494;-67
2020/12/26 11:06:37;;;;;;;0.97;0.70;;;20.40;48.00;;;;;;5043367;28;20481;-67
2020/12/26 11:09:04;;;;;;;1.13;0.63;;;20.40;48.00;;;;;;5053103;28;20523;-68
2020/12/26 11:11:30;;;;;;;0.83;0.83;;;20.40;48.00;;;;;;5025304;28;20494;-67
2020/12/26 11:13:56;;;;;;;0.80;0.80;;;20.40;48.00;;;;;;5046890;28;20477;-68
2020/12/26 11:16:22;;;;;;;1.00;0.80;;;20.40;48.00;;;;;;5046260;28;20485;-67
2020/12/26 11:18:48;;;;;;;1.60;0.80;;;20.40;48.10;;;;;;5042545;28;20486;-67
2020/12/26 11:21:15;;;;;;;1.37;0.83;;;20.30;48.10;;;;;;5034079;28;20478;-67
2020/12/26 11:23:42;;;;;;;0.80;0.80;;;20.30;48.10;;;;;;5041478;28;20508;-68
2020/12/26 11:26:08;;;;;;;1.17;1.07;;;20.30;48.10;;;;;;5059989;28;20481;-67
2020/12/26 11:28:34;;;;;;;3.90;1.27;;;20.30;48.20;;;;;;5071105;28;20478;-68
2020/12/26 11:31:01;;;;;;;0.67;0.67;;;20.30;48.10;;;;;;5067851;28;20506;-67
2020/12/26 11:33:27;;;;;;;0.60;0.57;;;20.30;48.10;;;;;;5045208;28;20493;-67
2020/12/26 11:35:53;;;;;;;1.57;1.13;;;20.30;48.10;;;;;;5039795;28;20496;-68
2020/12/26 11:38:20;;;;;;;0.80;0.80;;;20.30;48.10;;;;;;5050841;28;20478;-68
2020/12/26 11:40:47;;;;;;;1.53;1.20;;;20.30;48.10;;;;;;5040870;28;20486;-67
2020/12/26 11:43:13;;;;;;;5.07;0.70;;;20.30;48.00;;;;;;5047992;28;20489;-68
2020/12/26 11:45:39;;;;;;;2.90;0.80;;;20.30;48.10;;;;;;5026687;28;20501;-68
2020/12/26 11:48:05;;;;;;;0.70;0.70;;;20.30;48.10;;;;;;5050019;28;20478;-67
2020/12/26 11:50:31;;;;;;;1.20;1.10;;;20.30;48.10;;;;;;5050825;28;21022;-67
2020/12/26 11:52:57;;;;;;;0.80;0.80;;;20.30;48.20;;;;;;5027442;28;20513;-68
2020/12/26 11:55:24;;;;;;;0.90;0.90;;;20.30;48.10;;;;;;5020548;28;20489;-67
2020/12/26 11:57:51;;;;;;;0.87;0.80;;;20.30;48.10;;;;;;5045972;28;20489;-68
2020/12/26 12:00:17;;;;;;;1.00;0.83;;;20.30;48.20;;;;;;5025855;28;20493;-67
2020/12/26 12:02:43;;;;;;;0.80;0.80;;;20.30;48.20;;;;;;5040115;28;20509;-69
2020/12/26 12:05:09;;;;;;;0.80;0.80;;;20.30;48.30;;;;;;5038528;28;20494;-67
2020/12/26 12:07:35;;;;;;;1.03;0.70;;;20.30;48.30;;;;;;5050898;28;20907;-67
2020/12/26 12:10:02;;;;;;;1.37;1.27;;;20.30;48.30;;;;;;5048850;28;20474;-67
2020/12/26 12:12:28;;;;;;;0.97;0.93;;;20.30;48.50;;;;;;5035809;28;20547;-68
2020/12/26 12:14:55;;;;;;;3.03;1.20;;;20.30;48.30;;;;;;5039720;28;20477;-67
2020/12/26 12:17:21;;;;;;;1.90;1.57;;;20.20;48.10;;;;;;5050768;28;21005;-66
2020/12/26 12:19:47;;;;;;;1.07;0.90;;;20.20;48.10;;;;;;5049140;28;20880;-68
2020/12/26 12:22:14;;;;;;;1.10;1.00;;;20.20;48.20;;;;;;5038859;28;20509;-68
2020/12/26 12:24:40;;;;;;;1.13;1.03;;;20.20;48.30;;;;;;5055471;28;20486;-68
2020/12/26 12:27:06;;;;;;;0.70;0.70;;;20.20;48.20;;;;;;5056946;28;20490;-67
2020/12/26 12:29:32;;;;;;;1.40;1.30;;;20.20;48.20;;;;;;5051375;28;20486;-67
2020/12/26 12:31:59;;;;;;;2.33;1.60;;;20.30;48.20;;;;;;5042147;28;21041;-67
2020/12/26 12:34:25;;;;;;;1.00;1.00;;;20.30;48.20;;;;;;5050667;28;20520;-67
2020/12/26 12:36:51;;;;;;;0.73;0.73;;;20.20;48.10;;;;;;5007430;28;20998;-66
2020/12/26 12:39:17;;;;;;;1.13;1.03;;;20.20;48.00;;;;;;5046144;28;21206;-66
2020/12/26 12:41:44;;;;;;;0.80;0.80;;;20.30;48.00;;;;;;5047174;28;21029;-68
2020/12/26 12:44:10;;;;;;;0.70;0.70;;;20.20;48.30;;;;;;5028286;28;21089;-68
2020/12/26 12:46:36;;;;;;;2.43;1.00;;;20.30;48.00;;;;;;5054932;28;20488;-66